Time;durP1;ratioP1;P1;durP2;ratioP2;P2;SDS_P1;SDS_P2;PMS_P1;PMS_P2;Temp;Humidity;BMP_temperature;BMP_pressure;BME280_temperature;BME280_humidity;BME280_pressure;Samples;Min_cycle;Max_cycle;Signal;HPM_P1;HPM_P2
2023/02/10 00:01:27;;;;;;;55.45;30.63;;;;;;;-3.43;57.74;96389.22;4213218;28;20047;-58
2023/02/10 00:03:28;;;;;;;57.75;30.40;;;;;;;-3.46;57.27;96389.28;4212069;28;20044;-60
2023/02/10 00:05:31;;;;;;;55.80;28.20;;;;;;;-3.45;57.36;96382.44;4212893;28;20127;-54
2023/02/10 00:07:33;;;;;;;56.83;31.42;;;;;;;-3.43;56.86;96388.38;4205876;28;20056;-56
2023/02/10 00:09:35;;;;;;;56.45;30.20;;;;;;;-3.40;57.62;96388.28;4206582;28;20056;-57
2023/02/10 00:13:57;;;;;;;55.30;29.63;;;;;;;-3.54;56.92;96384.31;4201714;28;20048;-60
2023/02/10 00:16:00;;;;;;;53.55;28.88;;;;;;;-3.53;57.58;96380.03;4202556;28;20504;-60
2023/02/10 00:18:02;;;;;;;53.22;29.38;;;;;;;-3.52;58.03;96391.97;4204634;28;20106;-59
2023/02/10 00:20:03;;;;;;;51.55;28.75;;;;;;;-3.48;57.23;96383.34;4203980;28;20086;-62
2023/02/10 00:22:05;;;;;;;49.15;27.00;;;;;;;-3.52;57.10;96381.72;4199646;28;20051;-59
2023/02/10 00:24:07;;;;;;;59.92;29.13;;;;;;;-3.50;57.42;96374.84;4212852;28;20411;-60
2023/02/10 00:26:11;;;;;;;60.40;29.60;;;;;;;-3.47;57.07;96377.34;4204085;28;20040;-62
2023/02/10 00:28:12;;;;;;;56.10;30.00;;;;;;;-3.50;57.61;96373.13;4210611;28;20048;-60
2023/02/10 00:30:14;;;;;;;51.88;28.35;;;;;;;-3.44;57.89;96381.56;4201404;28;20110;-60
2023/02/10 00:32:17;;;;;;;51.05;28.88;;;;;;;-3.45;57.93;96377.31;4207531;28;20044;-61
2023/02/10 00:34:18;;;;;;;49.50;27.08;;;;;;;-3.41;57.32;96373.81;4201589;28;20577;-61
2023/02/10 00:36:21;;;;;;;48.80;27.08;;;;;;;-3.43;56.93;96371.28;4211558;28;20048;-60
2023/02/10 00:38:23;;;;;;;49.00;28.87;;;;;;;-3.40;57.74;96370.34;4212139;28;20083;-63
2023/02/10 00:40:24;;;;;;;45.45;26.02;;;;;;;-3.43;57.51;96371.28;4201762;28;20780;-60
2023/02/10 00:42:26;;;;;;;50.00;28.70;;;;;;;-3.46;56.81;96365.38;4195252;28;20113;-61
2023/02/10 00:44:28;;;;;;;48.72;26.55;;;;;;;-3.59;57.19;96365.66;4200338;28;20172;-60
2023/02/10 00:46:30;;;;;;;51.28;27.27;;;;;;;-3.61;57.32;96364.00;4208577;28;20044;-55
2023/02/10 00:48:31;;;;;;;45.85;25.63;;;;;;;-3.60;57.92;96355.44;4205745;28;20052;-55
2023/02/10 00:50:33;;;;;;;44.47;25.08;;;;;;;-3.57;58.41;96357.91;4211713;28;20181;-52
2023/02/10 00:52:35;;;;;;;47.45;25.27;;;;;;;-3.65;56.91;96349.56;4206652;28;20047;-55
2023/02/10 00:54:37;;;;;;;47.85;26.75;;;;;;;-3.70;57.59;96359.88;4205474;28;20129;-52
2023/02/10 00:56:42;;;;;;;44.42;25.40;;;;;;;-3.74;57.26;96356.56;4202595;28;20048;-50
2023/02/10 00:58:44;;;;;;;44.95;26.10;;;;;;;-3.72;57.69;96354.81;4203941;28;20045;-51
2023/02/10 01:00:46;;;;;;;45.92;25.75;;;;;;;-3.76;58.11;96353.19;4205935;28;20040;-51
2023/02/10 01:02:48;;;;;;;49.08;25.48;;;;;;;-3.83;58.19;96346.53;4203458;28;20040;-53
2023/02/10 01:04:50;;;;;;;43.15;24.33;;;;;;;-3.84;57.98;96344.81;4202658;28;20084;-51
2023/02/10 01:06:52;;;;;;;47.70;25.35;;;;;;;-3.85;57.27;96343.16;4204528;28;20382;-55
2023/02/10 01:08:53;;;;;;;41.42;23.35;;;;;;;-3.95;57.95;96347.59;4206051;28;20078;-52
2023/02/10 01:11:03;;;;;;;45.45;25.77;;;;;;;-4.02;58.04;96346.06;4205639;28;20505;-55
2023/02/10 01:13:06;;;;;;;43.92;25.05;;;;;;;-4.10;57.89;96349.63;4203538;28;20103;-57
2023/02/10 01:15:08;;;;;;;45.75;25.85;;;;;;;-4.41;59.00;96351.06;4212506;28;20047;-53
2023/02/10 01:17:10;;;;;;;44.47;24.15;;;;;;;-4.44;59.40;96350.25;4204066;28;20890;-55
2023/02/10 01:19:11;;;;;;;45.42;24.50;;;;;;;-4.41;59.57;96338.28;4203124;28;20044;-58
2023/02/10 01:21:16;;;;;;;40.28;24.50;;;;;;;-4.35;59.48;96340.69;4197718;28;20110;-54
2023/02/10 01:23:19;;;;;;;45.60;24.60;;;;;;;-4.29;58.94;96336.34;4198076;28;20727;-54
2023/02/10 01:25:21;;;;;;;42.35;25.15;;;;;;;-4.22;58.78;96333.63;4212336;28;20059;-54
2023/02/10 01:27:22;;;;;;;42.65;24.23;;;;;;;-4.14;58.45;96338.59;4210687;28;20117;-54
2023/02/10 01:29:24;;;;;;;45.20;24.05;;;;;;;-4.13;58.61;96333.47;4206551;28;20080;-52
2023/02/10 01:31:26;;;;;;;45.85;25.40;;;;;;;-4.17;58.48;96328.44;4208248;28;20048;-52
2023/02/10 01:33:28;;;;;;;48.13;25.92;;;;;;;-4.23;58.60;96324.28;4211165;28;20043;-54
2023/02/10 01:35:30;;;;;;;46.65;26.00;;;;;;;-4.32;58.82;96324.47;4211510;28;20048;-58
2023/02/10 01:37:33;;;;;;;42.97;25.17;;;;;;;-4.53;58.89;96323.13;4206122;28;20041;-56
2023/02/10 01:39:35;;;;;;;44.30;24.90;;;;;;;-4.74;59.32;96324.38;4206028;28;20109;-53
2023/02/10 01:41:36;;;;;;;46.38;25.40;;;;;;;-4.89;60.05;96329.75;4198701;28;20053;-53
2023/02/10 01:44:01;;;;;;;46.13;25.73;;;;;;;-5.57;61.15;96325.66;4195042;28;20074;-51
2023/02/10 01:46:02;;;;;;;52.13;27.42;;;;;;;-6.02;63.83;96330.59;4203713;28;20098;-57
2023/02/10 01:48:06;;;;;;;52.75;30.33;;;;;;;-6.05;63.94;96335.72;4197371;28;20048;-54
2023/02/10 01:50:08;;;;;;;49.38;28.52;;;;;;;-5.88;64.66;96322.72;4194588;28;20070;-59
2023/02/10 01:52:13;;;;;;;52.95;28.88;;;;;;;-5.56;63.63;96320.53;4195612;28;20044;-55
2023/02/10 01:54:19;;;;;;;52.45;29.40;;;;;;;-5.29;62.75;96310.81;4206511;28;20239;-53
2023/02/10 01:56:20;;;;;;;52.22;28.58;;;;;;;-5.07;62.02;96306.19;4196843;28;20135;-54
2023/02/10 01:58:25;;;;;;;51.05;29.60;;;;;;;-4.92;61.46;96306.81;4203156;28;20059;-54
2023/02/10 02:00:27;;;;;;;58.80;32.05;;;;;;;-4.76;60.77;96310.75;4204603;28;20389;-53
2023/02/10 02:02:28;;;;;;;55.58;32.33;;;;;;;-4.64;60.35;96300.31;4210450;28;20117;-57
2023/02/10 02:04:30;;;;;;;56.45;30.88;;;;;;;-4.55;60.07;96295.03;4215004;28;20064;-56
2023/02/10 02:06:33;;;;;;;58.92;32.55;;;;;;;-4.50;60.20;96301.78;4198176;28;20060;-55
2023/02/10 02:08:35;;;;;;;59.05;33.30;;;;;;;-4.50;59.61;96291.53;4207243;28;20097;-56
2023/02/10 02:10:59;;;;;;;56.25;32.95;;;;;;;-4.45;59.86;96287.16;4214239;28;20051;-56
2023/02/10 02:13:10;;;;;;;61.20;32.53;;;;;;;-4.50;59.68;96286.44;4203069;28;20413;-56
2023/02/10 02:15:18;;;;;;;62.55;33.08;;;;;;;-4.72;60.24;96286.00;4203542;28;20053;-56
2023/02/10 02:17:30;;;;;;;62.58;32.70;;;;;;;-5.18;61.20;96290.19;4200505;28;20413;-54
2023/02/10 02:19:32;;;;;;;56.58;32.20;;;;;;;-5.89;62.69;96300.59;4214873;28;20040;-53
2023/02/10 02:22:06;;;;;;;60.47;31.90;;;;;;;-6.42;64.71;96292.78;4207796;28;20579;-57
2023/02/10 02:24:07;;;;;;;57.65;29.40;;;;;;;-6.56;67.08;96295.50;4191524;28;20070;-56
2023/02/10 02:26:30;;;;;;;61.03;32.58;;;;;;;-6.85;67.93;96294.09;4212698;28;20422;-51
2023/02/10 02:28:57;;;;;;;63.70;33.90;;;;;;;-7.00;68.27;96300.19;4199595;28;20048;-54
2023/02/10 02:31:30;;;;;;;56.20;31.52;;;;;;;-7.08;69.05;96291.75;4212341;28;20429;-54
2023/02/10 02:33:44;;;;;;;61.95;32.78;;;;;;;-7.07;68.64;96298.56;4211967;28;20072;-55
2023/02/10 02:35:54;;;;;;;62.55;32.33;;;;;;;-7.15;68.80;96299.47;4210407;28;20101;-53
2023/02/10 02:37:56;;;;;;;59.80;30.80;;;;;;;-7.27;68.89;96301.28;4210220;28;20131;-54
2023/02/10 02:39:57;;;;;;;59.30;31.48;;;;;;;-7.22;69.26;96303.78;4211019;28;20093;-53
2023/02/10 02:42:23;;;;;;;57.55;30.08;;;;;;;-7.13;68.66;96302.88;4213845;28;20101;-56
2023/02/10 02:44:25;;;;;;;55.10;30.02;;;;;;;-7.15;69.41;96296.94;4205733;28;20094;-54
2023/02/10 02:46:32;;;;;;;52.15;27.88;;;;;;;-7.14;67.90;96299.47;4205112;28;20493;-54
2023/02/10 02:48:42;;;;;;;48.67;24.83;;;;;;;-7.23;67.38;96290.22;4202319;28;20063;-61
2023/02/10 02:51:08;;;;;;;50.15;25.67;;;;;;;-7.34;68.79;96288.59;4207177;28;20049;-60
2023/02/10 02:53:16;;;;;;;52.65;26.25;;;;;;;-7.30;68.40;96291.09;4211218;28;20086;-54
2023/02/10 02:55:32;;;;;;;47.05;25.25;;;;;;;-7.14;68.28;96296.94;4209077;28;20057;-53
2023/02/10 02:57:45;;;;;;;50.47;26.73;;;;;;;-6.90;67.76;96284.81;4206866;28;20052;-54
2023/02/10 03:00:19;;;;;;;52.25;27.17;;;;;;;-6.70;67.82;96290.53;4214145;28;20083;-55
2023/02/10 03:02:21;;;;;;;54.25;28.90;;;;;;;-6.68;67.23;96281.19;4211617;28;20163;-52
2023/02/10 03:04:23;;;;;;;55.17;32.33;;;;;;;-6.79;66.41;96280.47;4213944;28;20127;-54
2023/02/10 03:06:25;;;;;;;60.88;33.83;;;;;;;-6.98;67.68;96276.41;4208251;28;20498;-55
2023/02/10 03:08:28;;;;;;;61.88;33.95;;;;;;;-6.93;67.18;96277.19;4203136;28;20052;-55
2023/02/10 03:10:30;;;;;;;65.60;36.72;;;;;;;-6.93;67.75;96289.94;4214153;28;20052;-52
2023/02/10 03:12:31;;;;;;;73.55;37.75;;;;;;;-6.84;67.29;96284.72;4199524;28;20090;-56
2023/02/10 03:14:33;;;;;;;65.50;34.55;;;;;;;-6.75;67.26;96286.34;4214051;28;20105;-53
2023/02/10 03:16:35;;;;;;;60.13;32.20;;;;;;;-6.64;66.52;96289.66;4212698;28;20052;-60
2023/02/10 03:18:36;;;;;;;62.22;34.08;;;;;;;-6.60;67.76;96289.59;4210412;28;20456;-55
2023/02/10 03:20:39;;;;;;;59.08;32.92;;;;;;;-6.67;66.91;96285.41;4208691;28;20830;-52
2023/02/10 03:22:41;;;;;;;66.18;35.67;;;;;;;-6.78;66.93;96294.03;4207223;28;20048;-56
2023/02/10 03:24:43;;;;;;;67.07;36.67;;;;;;;-6.83;67.05;96287.28;4211533;28;20048;-53
2023/02/10 03:26:45;;;;;;;67.85;37.13;;;;;;;-6.86;67.81;96286.44;4211668;28;20047;-51
2023/02/10 03:28:46;;;;;;;67.25;37.25;;;;;;;-6.88;68.09;96281.41;4211426;28;20044;-52
2023/02/10 03:30:50;;;;;;;74.28;39.47;;;;;;;-6.82;68.22;96280.47;4205161;28;20490;-55
2023/02/10 03:32:53;;;;;;;66.75;36.88;;;;;;;-6.95;68.04;96289.09;4211833;28;20051;-56
2023/02/10 03:34:54;;;;;;;64.40;34.83;;;;;;;-6.95;68.17;96284.00;4212754;28;20059;-54
2023/02/10 03:36:56;;;;;;;64.72;34.75;;;;;;;-6.85;67.89;96283.91;4207548;28;20072;-57
2023/02/10 03:38:58;;;;;;;63.92;35.88;;;;;;;-6.71;67.69;96291.41;4205164;28;20505;-52
2023/02/10 03:40:59;;;;;;;58.65;32.40;;;;;;;-6.51;67.57;96278.44;4213195;28;20054;-56
2023/02/10 03:43:01;;;;;;;64.35;31.63;;;;;;;-6.36;66.24;96277.44;4212769;28;20151;-56
2023/02/10 03:45:03;;;;;;;60.03;32.30;;;;;;;-6.15;66.28;96275.44;4213919;28;20048;-56
2023/02/10 03:47:05;;;;;;;56.65;30.58;;;;;;;-5.97;65.16;96260.75;4212705;28;20134;-55
2023/02/10 03:49:06;;;;;;;49.28;28.75;;;;;;;-5.76;64.44;96263.84;4213439;28;20379;-57
2023/02/10 03:51:08;;;;;;;54.50;27.60;;;;;;;-5.78;63.04;96255.34;4212674;28;20052;-58
2023/02/10 03:53:10;;;;;;;54.85;29.88;;;;;;;-5.79;63.70;96251.09;4211348;28;20044;-55
2023/02/10 03:55:14;;;;;;;55.60;30.05;;;;;;;-5.81;63.75;96253.69;4207297;28;20106;-53
2023/02/10 03:57:16;;;;;;;;;;;;;;;-5.80;63.39;96252.81;4207950;28;20409;-57
2023/02/10 03:59:18;;;;;;;53.22;29.83;;;;;;;-5.70;63.35;96252.69;4213439;28;20339;-58
2023/02/10 04:01:19;;;;;;;57.03;31.95;;;;;;;-5.61;63.24;96253.41;4212987;28;20067;-52
2023/02/10 04:03:21;;;;;;;55.38;32.78;;;;;;;-5.56;62.85;96248.22;4212474;28;20048;-57
2023/02/10 04:05:23;;;;;;;51.60;29.33;;;;;;;-5.55;62.12;96252.44;4204834;28;20076;-55
2023/02/10 04:07:24;;;;;;;77.03;41.63;;;;;;;-5.52;61.81;96254.13;4209412;28;20139;-61
2023/02/10 04:09:27;;;;;;;100.30;53.47;;;;;;;-5.49;62.66;96254.91;4198326;28;20059;-60
2023/02/10 04:11:29;;;;;;;56.05;32.60;;;;;;;-5.44;62.20;96255.69;4198190;28;20082;-60
2023/02/10 04:13:31;;;;;;;57.58;34.10;;;;;;;-5.44;62.61;96249.72;4197539;28;20076;-59
2023/02/10 04:15:32;;;;;;;58.00;32.45;;;;;;;-5.40;62.58;96252.22;4210856;28;20106;-59
2023/02/10 04:17:34;;;;;;;59.78;32.95;;;;;;;-5.44;61.79;96254.81;4200289;28;20079;-61
2023/02/10 04:19:36;;;;;;;54.65;29.20;;;;;;;-5.72;61.75;96251.84;4207249;28;20460;-54
2023/02/10 04:21:38;;;;;;;59.30;32.58;;;;;;;-6.22;63.50;96264.50;4206837;28;20054;-56
2023/02/10 04:23:39;;;;;;;58.90;31.50;;;;;;;-6.59;64.73;96263.22;4212729;28;20036;-56
2023/02/10 04:25:41;;;;;;;54.13;31.52;;;;;;;-6.64;64.91;96265.00;4212179;28;20044;-59
2023/02/10 04:27:43;;;;;;;56.92;29.73;;;;;;;-6.66;65.88;96261.63;4212200;28;20466;-54
2023/02/10 04:29:44;;;;;;;55.65;30.83;;;;;;;-6.61;66.10;96259.84;4205092;28;20578;-57
2023/02/10 04:31:46;;;;;;;52.53;28.63;;;;;;;-6.37;65.54;96257.88;4208455;28;20055;-53
2023/02/10 04:33:48;;;;;;;50.47;29.30;;;;;;;-6.15;64.61;96255.03;4211349;28;20093;-54
2023/02/10 04:35:49;;;;;;;44.25;25.58;;;;;;;-5.92;64.44;96253.00;4208411;28;20048;-57
2023/02/10 04:37:51;;;;;;;49.80;28.45;;;;;;;-5.78;64.01;96257.91;4204168;28;20449;-56
2023/02/10 04:39:53;;;;;;;48.00;26.58;;;;;;;-5.62;63.71;96255.97;4212808;28;20044;-57
2023/02/10 04:41:54;;;;;;;49.75;27.75;;;;;;;-5.73;62.65;96258.69;4211554;28;20051;-55
2023/02/10 04:43:56;;;;;;;46.22;27.10;;;;;;;-5.71;62.77;96261.22;4212897;28;20382;-56
2023/02/10 04:45:58;;;;;;;47.55;25.38;;;;;;;-5.64;62.44;96257.69;4213174;28;20159;-56
2023/02/10 04:47:59;;;;;;;47.67;25.55;;;;;;;-5.54;61.98;96253.31;4211837;28;20051;-53
2023/02/10 04:50:01;;;;;;;38.90;24.15;;;;;;;-5.46;61.98;96257.44;4211441;28;20450;-57
2023/02/10 04:52:03;;;;;;;40.83;22.60;;;;;;;-5.36;61.50;96258.09;4198587;28;20066;-58
2023/02/10 04:54:05;;;;;;;40.58;23.27;;;;;;;-5.27;61.01;96262.22;4211957;28;20101;-59
2023/02/10 04:56:07;;;;;;;41.28;23.60;;;;;;;-5.22;61.06;96257.91;4213095;28;20051;-55
2023/02/10 04:58:08;;;;;;;40.63;23.35;;;;;;;-5.16;60.68;96265.47;4209408;28;20490;-57
2023/02/10 05:00:11;;;;;;;44.92;24.08;;;;;;;-5.12;60.70;96261.94;4198197;28;20098;-54
2023/02/10 05:02:13;;;;;;;41.70;22.80;;;;;;;-5.11;60.35;96262.81;4211354;28;20413;-58
2023/02/10 05:04:15;;;;;;;39.25;23.00;;;;;;;-5.11;59.80;96266.22;4212886;28;20047;-61
2023/02/10 05:06:16;;;;;;;37.08;22.55;;;;;;;-5.13;60.28;96265.41;4212144;28;20057;-62
2023/02/10 05:08:23;;;;;;;37.97;22.27;;;;;;;-5.12;60.10;96266.22;4212181;28;20052;-62
2023/02/10 05:10:25;;;;;;;41.00;23.23;;;;;;;-5.12;60.00;96268.78;4212880;28;20066;-57
2023/02/10 05:12:26;;;;;;;38.05;22.20;;;;;;;-5.13;60.04;96275.63;4211974;28;20056;-56
2023/02/10 05:14:28;;;;;;;43.40;24.02;;;;;;;-5.09;60.27;96281.53;4209120;28;20054;-55
2023/02/10 05:16:30;;;;;;;42.10;23.20;;;;;;;-5.09;60.17;96273.88;4212235;28;20416;-57
2023/02/10 05:18:33;;;;;;;46.28;24.67;;;;;;;-5.25;60.14;96275.81;4209621;28;20599;-58
2023/02/10 05:20:35;;;;;;;43.67;23.50;;;;;;;-5.29;60.74;96285.25;4207923;28;20052;-56
2023/02/10 05:22:37;;;;;;;57.05;29.38;;;;;;;-5.26;60.55;96294.56;4208454;28;20081;-53
2023/02/10 05:24:39;;;;;;;68.18;33.90;;;;;;;-5.24;60.73;96300.50;4208064;28;20082;-60
2023/02/10 05:26:41;;;;;;;46.42;26.17;;;;;;;-5.38;60.48;96308.38;4209044;28;20105;-54
2023/02/10 05:28:42;;;;;;;47.13;25.95;;;;;;;-5.42;60.30;96310.16;4211792;28;20055;-56
2023/02/10 05:30:44;;;;;;;45.30;25.80;;;;;;;-5.65;60.67;96309.63;4210636;28;20057;-59
2023/02/10 05:32:46;;;;;;;47.35;26.00;;;;;;;-6.06;61.71;96313.63;4211662;28;20399;-57
2023/02/10 05:34:48;;;;;;;44.38;27.33;;;;;;;-6.08;63.24;96323.84;4211919;28;20098;-57
2023/02/10 05:36:49;;;;;;;45.17;27.20;;;;;;;-5.95;62.81;96311.78;4204960;28;20040;-57
2023/02/10 05:41:11;;;;;;;55.58;30.40;;;;;;;-5.90;62.79;96317.63;4209605;28;20056;-57
2023/02/10 05:43:13;;;;;;;51.55;28.60;;;;;;;-5.81;62.12;96321.75;4212122;28;20493;-59
2023/02/10 05:45:15;;;;;;;49.97;28.23;;;;;;;-5.75;62.54;96324.22;4212096;28;20052;-57
2023/02/10 05:47:16;;;;;;;59.67;29.45;;;;;;;-5.71;62.08;96322.47;4211020;28;20048;-58
2023/02/10 05:49:19;;;;;;;58.45;28.75;;;;;;;-5.61;62.15;96324.06;4210065;28;20044;-55
2023/02/10 05:51:20;;;;;;;54.28;30.65;;;;;;;-5.52;61.50;96321.34;4211538;28;20079;-61
2023/02/10 05:53:22;;;;;;;49.90;28.85;;;;;;;-5.40;61.06;96326.28;4211931;28;20102;-62
2023/02/10 05:55:23;;;;;;;56.75;30.52;;;;;;;-5.30;60.62;96326.16;4211950;28;20465;-62
2023/02/10 05:57:25;;;;;;;56.40;30.40;;;;;;;-5.22;60.76;96326.88;4209973;28;20056;-63
2023/02/10 05:59:27;;;;;;;60.03;29.85;;;;;;;-5.18;60.34;96326.78;4211534;28;20040;-62
2023/02/10 06:01:28;;;;;;;51.88;30.17;;;;;;;-5.11;59.99;96319.88;4209468;28;20055;-62
2023/02/10 06:03:30;;;;;;;51.50;30.73;;;;;;;-5.08;60.33;96327.47;4210471;28;20067;-59
2023/02/10 06:05:32;;;;;;;55.55;32.00;;;;;;;-5.04;60.54;96329.13;4210134;28;20062;-60
2023/02/10 06:07:34;;;;;;;53.00;31.13;;;;;;;-4.95;60.24;96330.69;4212204;28;20071;-62
2023/02/10 06:09:36;;;;;;;56.08;30.83;;;;;;;-4.88;59.86;96331.41;4211085;28;20075;-63
2023/02/10 06:11:40;;;;;;;52.53;29.88;;;;;;;-4.78;59.65;96338.06;4212171;28;20044;-63
2023/02/10 06:13:42;;;;;;;57.38;31.40;;;;;;;-4.70;59.29;96346.44;4211217;28;20044;-62
2023/02/10 06:15:44;;;;;;;53.70;32.10;;;;;;;-4.64;59.17;96345.50;4203868;28;20052;-62
2023/02/10 06:17:45;;;;;;;58.38;31.83;;;;;;;-4.57;59.27;96349.63;4210815;28;20054;-64
2023/02/10 06:19:47;;;;;;;59.13;31.88;;;;;;;-4.52;59.34;96342.72;4211246;28;20040;-62
2023/02/10 06:21:49;;;;;;;60.08;31.35;;;;;;;-4.51;58.77;96346.97;4196981;28;20048;-61
2023/02/10 06:23:50;;;;;;;56.05;31.23;;;;;;;-4.43;58.57;96351.94;4212210;28;20066;-61
2023/02/10 06:25:54;;;;;;;50.92;29.45;;;;;;;-4.41;58.41;96345.94;4210366;28;20148;-62
2023/02/10 06:27:56;;;;;;;57.10;31.58;;;;;;;-4.59;58.26;96349.66;4211364;28;20082;-61
2023/02/10 06:29:57;;;;;;;60.28;31.60;;;;;;;-4.62;58.90;96359.13;4211261;28;20040;-63
2023/02/10 06:31:59;;;;;;;57.38;32.30;;;;;;;-4.69;59.19;96348.13;4211024;28;20102;-64
2023/02/10 06:34:00;;;;;;;55.28;30.25;;;;;;;-4.68;59.15;96354.94;4209694;28;20472;-61
2023/02/10 06:36:05;;;;;;;54.50;29.40;;;;;;;-4.70;59.28;96354.13;4210638;28;20158;-62
2023/02/10 06:38:06;;;;;;;56.63;30.40;;;;;;;-4.69;58.76;96357.53;4209460;28;20048;-61
2023/02/10 06:40:09;;;;;;;55.78;31.00;;;;;;;-4.73;59.31;96359.31;4208111;28;20044;-62
2023/02/10 06:42:11;;;;;;;52.78;31.60;;;;;;;-5.00;59.59;96358.03;4210155;28;20052;-62
2023/02/10 06:44:12;;;;;;;55.78;32.20;;;;;;;-5.20;60.35;96366.84;4209364;28;20062;-61
2023/02/10 06:46:15;;;;;;;62.78;31.70;;;;;;;-5.09;60.85;96363.31;4213689;28;20061;-60
2023/02/10 06:48:17;;;;;;;61.50;35.27;;;;;;;-4.97;60.73;96365.63;4211994;28;20052;-61
2023/02/10 06:50:19;;;;;;;64.95;35.65;;;;;;;-4.96;60.27;96363.06;4213538;28;20312;-62
2023/02/10 06:52:21;;;;;;;58.60;32.60;;;;;;;-4.77;60.13;96355.94;4212523;28;20135;-64
2023/02/10 06:54:22;;;;;;;62.85;33.55;;;;;;;-4.51;59.39;96364.88;4213481;28;20051;-60
2023/02/10 06:56:24;;;;;;;66.20;33.00;;;;;;;-4.54;60.27;96372.59;4214883;28;20055;-57
2023/02/10 06:58:26;;;;;;;65.15;32.55;;;;;;;-4.58;59.23;96365.84;4214475;28;20047;-55
2023/02/10 07:00:28;;;;;;;62.70;34.65;;;;;;;-4.83;59.90;96376.50;4213763;28;20044;-57
2023/02/10 07:02:30;;;;;;;60.35;33.15;;;;;;;-4.80;60.36;96380.72;4210732;28;20089;-59
2023/02/10 07:04:32;;;;;;;67.82;33.83;;;;;;;-4.59;59.92;96375.22;4212061;28;20531;-56
2023/02/10 07:06:33;;;;;;;60.60;33.88;;;;;;;-4.38;60.13;96386.81;4214317;28;20414;-56
2023/02/10 07:08:35;;;;;;;65.05;32.15;;;;;;;-4.19;58.99;96371.97;4213116;28;20063;-56
2023/02/10 07:10:37;;;;;;;68.97;32.15;;;;;;;-4.05;58.35;96375.97;4213409;28;20048;-55
2023/02/10 07:12:38;;;;;;;56.30;30.45;;;;;;;-3.91;57.80;96371.44;4213272;28;20329;-58
2023/02/10 07:14:41;;;;;;;51.35;28.23;;;;;;;-3.74;57.92;96366.81;4214472;28;20040;-55
2023/02/10 07:16:42;;;;;;;56.45;29.42;;;;;;;-3.57;57.56;96366.47;4214704;28;20083;-58
2023/02/10 07:18:44;;;;;;;47.95;26.05;;;;;;;-3.47;56.94;96356.84;4213464;28;20055;-55
2023/02/10 07:20:46;;;;;;;46.92;25.77;;;;;;;-3.44;56.68;96359.34;4208445;28;20052;-58
2023/02/10 07:22:48;;;;;;;49.65;24.98;;;;;;;-3.47;56.13;96358.56;4209096;28;20093;-54
2023/02/10 07:24:49;;;;;;;48.13;23.67;;;;;;;-3.42;56.02;96357.59;4213597;28;20040;-57
2023/02/10 07:26:51;;;;;;;47.60;24.60;;;;;;;-3.38;56.22;96363.47;4206274;28;20607;-63
2023/02/10 07:28:54;;;;;;;52.92;24.95;;;;;;;-3.29;55.37;96358.19;4212959;28;20101;-61
2023/02/10 07:30:55;;;;;;;51.50;25.58;;;;;;;-3.28;55.24;96359.84;4206717;28;20051;-61
2023/02/10 07:32:59;;;;;;;52.22;26.85;;;;;;;-3.17;55.50;96364.72;4212162;28;20108;-62
2023/02/10 07:35:01;;;;;;;50.03;26.50;;;;;;;-3.12;55.05;96363.75;4205791;28;20048;-59
2023/02/10 07:37:02;;;;;;;49.35;25.80;;;;;;;-3.35;55.38;96363.44;4213311;28;20140;-60
2023/02/10 07:39:04;;;;;;;52.15;26.27;;;;;;;-3.28;56.51;96359.84;4213401;28;20509;-62
2023/02/10 07:41:06;;;;;;;45.17;25.70;;;;;;;-3.16;55.60;96361.28;4210329;28;20055;-61
2023/02/10 07:43:08;;;;;;;45.20;24.42;;;;;;;-3.18;55.11;96357.94;4213550;28;20051;-62
2023/02/10 07:45:10;;;;;;;44.38;23.42;;;;;;;-3.00;55.49;96354.91;4212823;28;20638;-63
2023/02/10 07:47:11;;;;;;;49.38;24.60;;;;;;;-2.97;55.10;96348.88;4210397;28;20466;-62
2023/02/10 07:49:13;;;;;;;54.50;26.75;;;;;;;-3.59;55.77;96359.66;4214232;28;20059;-58
2023/02/10 07:51:15;;;;;;;45.17;23.70;;;;;;;-3.70;56.32;96362.44;4212670;28;20044;-57
2023/02/10 07:53:20;;;;;;;49.40;26.25;;;;;;;-3.92;56.89;96364.63;4212333;28;20480;-62
2023/02/10 07:55:21;;;;;;;45.15;24.40;;;;;;;-3.93;56.30;96361.22;4210190;28;20075;-55
2023/02/10 07:57:23;;;;;;;46.83;25.85;;;;;;;-3.82;57.16;96362.72;4212697;28;20626;-60
2023/02/10 07:59:25;;;;;;;47.97;24.50;;;;;;;-3.84;57.04;96369.59;4212423;28;20055;-57
2023/02/10 08:01:26;;;;;;;43.55;23.60;;;;;;;-3.96;56.42;96374.09;4212843;28;20050;-56
2023/02/10 08:03:28;;;;;;;45.13;23.23;;;;;;;-4.00;56.90;96372.47;4213334;28;20055;-53
2023/02/10 08:05:30;;;;;;;43.00;23.13;;;;;;;-4.00;56.82;96371.59;4213251;28;20143;-57
2023/02/10 08:07:31;;;;;;;37.92;22.92;;;;;;;-3.81;55.92;96374.63;4213134;28;20056;-59
2023/02/10 08:09:33;;;;;;;46.95;23.88;;;;;;;-3.61;56.88;96375.09;4213725;28;20821;-56
2023/02/10 08:11:34;;;;;;;48.17;23.48;;;;;;;-3.30;55.58;96372.69;4213352;28;20083;-53
2023/02/10 08:13:36;;;;;;;44.00;22.73;;;;;;;-3.38;54.89;96366.03;4206923;28;20505;-58
2023/02/10 08:15:38;;;;;;;39.58;22.35;;;;;;;-3.29;54.58;96353.06;4205972;28;20105;-57
2023/02/10 08:17:40;;;;;;;41.65;21.88;;;;;;;-3.25;54.78;96353.81;4210599;28;20118;-54
2023/02/10 08:19:41;;;;;;;52.83;24.20;;;;;;;-2.95;54.97;96362.50;4210956;28;20052;-56
2023/02/10 08:21:43;;;;;;;45.05;22.75;;;;;;;-2.73;53.91;96352.56;4201873;28;20052;-58
2023/02/10 08:23:45;;;;;;;43.20;21.50;;;;;;;-2.50;53.23;96351.97;4213086;28;20089;-57
2023/02/10 08:25:47;;;;;;;49.63;23.70;;;;;;;-2.27;52.83;96352.22;4212541;28;20044;-57
2023/02/10 08:27:49;;;;;;;47.45;22.05;;;;;;;-1.99;52.58;96345.50;4212465;28;20545;-57
2023/02/10 08:29:50;;;;;;;48.97;23.77;;;;;;;-1.82;51.44;96347.59;4202494;28;20048;-57
2023/02/10 08:31:52;;;;;;;52.95;24.27;;;;;;;-2.24;51.82;96353.03;4210903;28;20434;-56
2023/02/10 08:33:54;;;;;;;44.88;23.73;;;;;;;-2.20;51.95;96352.06;4199838;28;20274;-57
2023/02/10 08:35:56;;;;;;;45.30;23.15;;;;;;;-2.10;52.16;96356.06;4213187;28;20473;-56
2023/02/10 08:37:58;;;;;;;40.65;24.25;;;;;;;-1.86;51.59;96355.38;4213612;28;20428;-57
2023/02/10 08:40:00;;;;;;;42.75;22.90;;;;;;;-1.74;51.14;96350.78;4200161;28;20117;-55
2023/02/10 08:42:01;;;;;;;42.03;22.23;;;;;;;-1.61;50.71;96349.56;4212616;28;20059;-59
2023/02/10 08:44:03;;;;;;;41.45;22.20;;;;;;;-1.60;50.56;96345.25;4206908;28;20052;-55
2023/02/10 08:46:05;;;;;;;47.67;22.65;;;;;;;-1.86;50.67;96352.81;4203849;28;20048;-58
2023/02/10 08:48:07;;;;;;;56.60;26.02;;;;;;;-2.11;51.58;96346.69;4212166;28;20087;-58
2023/02/10 08:50:08;;;;;;;49.33;25.75;;;;;;;-2.08;51.52;96349.19;4200682;28;20694;-58
2023/02/10 08:52:11;;;;;;;50.35;26.25;;;;;;;-2.09;51.72;96350.91;4207636;28;20056;-57
2023/02/10 08:54:12;;;;;;;56.22;25.00;;;;;;;-2.07;52.18;96349.09;4206034;28;20131;-57
2023/02/10 08:56:15;;;;;;;48.97;25.85;;;;;;;-2.43;52.09;96356.09;4212920;28;20097;-56
2023/02/10 08:58:17;;;;;;;46.13;25.02;;;;;;;-2.24;52.49;96345.31;4211481;28;20559;-58
2023/02/10 09:00:19;;;;;;;49.38;25.73;;;;;;;-1.92;52.17;96347.84;4212543;28;20048;-55
2023/02/10 09:02:20;;;;;;;52.15;23.65;;;;;;;-1.63;50.61;96337.63;4210608;28;20621;-53
2023/02/10 09:04:22;;;;;;;47.35;23.45;;;;;;;-1.48;49.82;96338.03;4209628;28;20051;-57
2023/02/10 09:06:30;;;;;;;49.63;25.20;;;;;;;-1.50;50.04;96333.81;4199297;28;20383;-54
2023/02/10 09:08:31;;;;;;;47.53;23.13;;;;;;;-2.00;50.84;96336.97;4197617;28;20072;-59
2023/02/10 09:10:33;;;;;;;45.47;24.25;;;;;;;-2.15;51.35;96333.09;4203648;28;20063;-54
2023/02/10 09:12:35;;;;;;;51.13;23.35;;;;;;;-1.99;51.38;96335.25;4212179;28;20048;-59
2023/02/10 09:14:38;;;;;;;43.85;22.65;;;;;;;-1.94;50.80;96330.81;4199952;28;20050;-55
2023/02/10 09:16:40;;;;;;;44.88;22.83;;;;;;;-2.02;50.83;96330.16;4209980;28;20465;-58
2023/02/10 09:18:42;;;;;;;40.88;22.42;;;;;;;-1.89;51.58;96327.22;4210310;28;20047;-57
2023/02/10 09:20:43;;;;;;;52.08;25.20;;;;;;;-1.55;51.02;96321.13;4206843;28;20063;-58
2023/02/10 09:22:47;;;;;;;45.80;22.50;;;;;;;-1.20;49.73;96321.75;4197964;28;20076;-57
2023/02/10 09:24:50;;;;;;;46.83;24.40;;;;;;;-0.97;49.01;96322.75;4209189;28;20044;-58
2023/02/10 09:26:52;;;;;;;41.83;23.63;;;;;;;-0.72;48.69;96323.63;4211130;28;20071;-60
2023/02/10 09:28:54;;;;;;;44.78;22.83;;;;;;;-0.48;47.76;96316.81;4211257;28;20334;-57
2023/02/10 09:30:55;;;;;;;43.42;22.95;;;;;;;-0.26;47.44;96318.66;4204765;28;20039;-59